createdAt,value
2019-04-11T00:02:46.995Z,26.50
2019-04-11T00:05:50.869Z,30.43
2019-04-11T00:08:54.673Z,34.17
2019-04-11T00:11:58.564Z,35.50
2019-04-11T00:15:02.554Z,33.57
2019-04-11T00:18:06.575Z,38.10
2019-04-11T00:21:10.798Z,30.70
2019-04-11T00:24:14.653Z,30.63
2019-04-11T00:27:19.099Z,34.43
2019-04-11T00:30:24.016Z,35.27
2019-04-11T00:33:28.111Z,34.63
2019-04-11T00:36:32.573Z,33.37
2019-04-11T00:39:37.462Z,35.13
2019-04-11T00:42:41.655Z,36.90
2019-04-11T00:45:45.813Z,35.17
2019-04-11T00:48:50.327Z,31.60
2019-04-11T00:51:56.207Z,35.70
2019-04-11T00:55:00.033Z,34.73
2019-04-11T00:58:03.968Z,36.20
2019-04-11T01:01:07.815Z,32.27
2019-04-11T01:04:11.722Z,33.03
2019-04-11T01:07:16.469Z,32.90
2019-04-11T01:10:20.395Z,34.30
2019-04-11T01:13:24.414Z,32.43
2019-04-11T01:16:45.090Z,35.03
2019-04-11T01:19:49.078Z,31.50
2019-04-11T01:22:54.067Z,33.80
2019-04-11T01:25:59.070Z,32.07
2019-04-11T01:29:04.035Z,30.93
2019-04-11T01:32:12.244Z,33.17
2019-04-11T01:35:17.197Z,31.27
2019-04-11T01:38:22.736Z,30.23
2019-04-11T01:41:26.727Z,32.43
2019-04-11T01:44:30.573Z,32.00
2019-04-11T01:47:39.345Z,30.57
2019-04-11T01:50:43.361Z,31.53
2019-04-11T01:53:47.203Z,25.00
2019-04-11T01:56:51.633Z,28.87
2019-04-11T01:59:55.623Z,29.30
2019-04-11T02:03:01.264Z,28.83
2019-04-11T02:06:05.459Z,32.67
2019-04-11T02:09:13.824Z,25.47
2019-04-11T02:12:18.257Z,24.97
2019-04-11T02:15:24.326Z,31.90
2019-04-11T02:18:28.146Z,25.13
2019-04-11T02:21:32.390Z,29.90
2019-04-11T02:24:40.396Z,24.53
2019-04-11T02:27:44.342Z,30.97
2019-04-11T02:30:51.258Z,27.07
2019-04-11T02:33:55.330Z,28.33
2019-04-11T02:37:00.454Z,31.27
2019-04-11T02:40:07.535Z,28.07
2019-04-11T02:43:13.333Z,31.07
2019-04-11T02:46:23.453Z,33.10
2019-04-11T02:49:23.673Z,30.10
2019-04-11T02:52:28.860Z,31.60
2019-04-11T02:55:35.632Z,31.93
2019-04-11T02:58:40.041Z,28.13
2019-04-11T03:01:44.088Z,34.07
2019-04-11T03:04:48.268Z,28.23
2019-04-11T03:07:53.974Z,29.23
2019-04-11T03:10:59.382Z,37.03
2019-04-11T03:14:04.042Z,30.70
2019-04-11T03:17:16.413Z,30.83
2019-04-11T03:20:24.239Z,31.00
2019-04-11T03:23:21.109Z,32.27
2019-04-11T03:26:25.055Z,34.17
2019-04-11T03:29:30.882Z,28.17
2019-04-11T03:33:31.983Z,31.03
2019-04-11T03:39:07.702Z,30.67
2019-04-11T03:42:04.138Z,33.63
2019-04-11T03:45:20.598Z,30.53
2019-04-11T03:48:20.452Z,28.83
2019-04-11T03:51:10.636Z,33.90
2019-04-11T03:54:15.734Z,27.83
2019-04-11T03:57:21.329Z,27.07
2019-04-11T04:00:31.329Z,29.63
2019-04-11T04:03:31.315Z,29.93
2019-04-11T04:06:35.145Z,29.20
2019-04-11T04:09:39.652Z,30.47
2019-04-11T04:12:45.361Z,25.60
2019-04-11T04:16:04.210Z,29.10
2019-04-11T04:19:16.507Z,26.90
2019-04-11T04:22:32.912Z,30.63
2019-04-11T04:25:38.697Z,28.80
2019-04-11T04:28:42.934Z,29.57
2019-04-11T04:31:46.824Z,28.20
2019-04-11T04:34:51.195Z,27.13
2019-04-11T04:37:56.969Z,28.63
2019-04-11T04:41:16.257Z,28.03
2019-04-11T04:44:08.637Z,29.63
2019-04-11T04:47:21.486Z,29.67
2019-04-11T04:50:19.931Z,30.97
2019-04-11T04:53:26.676Z,30.37
2019-04-11T04:56:32.248Z,30.57
2019-04-11T04:59:37.490Z,29.20
2019-04-11T05:02:42.175Z,31.53
2019-04-11T05:05:46.541Z,31.13
2019-04-11T05:08:51.402Z,33.17
2019-04-11T05:11:55.309Z,35.50
2019-04-11T05:14:59.250Z,36.77
2019-04-11T05:18:04.088Z,34.20
2019-04-11T05:21:08.672Z,33.07
2019-04-11T05:24:12.598Z,32.97
2019-04-11T05:27:17.450Z,32.40
2019-04-11T05:30:21.387Z,32.77
2019-04-11T05:33:25.363Z,34.97
2019-04-11T05:36:30.340Z,35.83
2019-04-11T05:39:34.515Z,36.17
2019-04-11T05:42:39.649Z,33.13
2019-04-11T05:45:43.468Z,32.33
2019-04-11T05:48:48.919Z,34.20
2019-04-11T05:51:58.752Z,37.67
2019-04-11T05:55:04.910Z,33.53
2019-04-11T05:58:12.765Z,38.53
2019-04-11T06:01:30.856Z,35.97
2019-04-11T06:04:51.739Z,37.97
2019-04-11T06:08:02.542Z,43.07
2019-04-11T06:11:08.124Z,38.50
2019-04-11T06:14:13.593Z,43.53
2019-04-11T06:17:18.734Z,38.73
2019-04-11T06:20:40.522Z,42.43
2019-04-11T06:23:49.881Z,37.63
2019-04-11T06:26:55.379Z,37.17
2019-04-11T06:30:03.424Z,37.07
2019-04-11T06:33:16.380Z,37.33
2019-04-11T06:36:28.132Z,33.33
2019-04-11T06:39:33.651Z,33.83
2019-04-11T06:42:47.856Z,33.17
2019-04-11T06:46:02.956Z,38.93
2019-04-11T06:49:18.271Z,37.23
2019-04-11T06:52:24.437Z,37.67
2019-04-11T06:55:33.128Z,36.63
2019-04-11T06:58:41.568Z,38.30
2019-04-11T07:01:47.504Z,42.03
2019-04-11T07:04:53.887Z,46.80
2019-04-11T07:07:59.916Z,40.90
2019-04-11T07:11:09.395Z,39.37
2019-04-11T07:14:27.094Z,40.93
2019-04-11T07:17:48.388Z,40.17
2019-04-11T07:20:54.229Z,40.10
2019-04-11T07:24:16.208Z,46.37
2019-04-11T07:27:20.188Z,51.17
2019-04-11T07:30:41.876Z,48.47
2019-04-11T07:33:53.973Z,46.03
2019-04-11T07:37:16.107Z,51.23
2019-04-11T07:40:31.507Z,51.20
2019-04-11T07:43:35.970Z,54.37
2019-04-11T07:46:43.943Z,48.40
2019-04-11T07:49:54.895Z,52.00
2019-04-11T07:52:58.441Z,50.53
2019-04-11T07:56:05.017Z,48.80
2019-04-11T07:59:10.732Z,49.47
2019-04-11T08:02:29.031Z,54.07
2019-04-11T08:05:37.325Z,52.10
2019-04-11T08:08:51.617Z,49.40
2019-04-11T08:12:00.328Z,45.70
2019-04-11T08:15:10.679Z,47.53
2019-04-11T08:18:28.455Z,44.60
2019-04-11T08:21:50.490Z,45.13
2019-04-11T08:25:13.276Z,45.27
2019-04-11T08:28:18.399Z,42.47
2019-04-11T08:31:40.464Z,39.43
2019-04-11T08:34:55.450Z,41.63
2019-04-11T08:38:10.226Z,48.23
2019-04-11T08:41:21.824Z,54.57
2019-04-11T08:44:28.037Z,48.20
2019-04-11T08:47:42.847Z,49.87
2019-04-11T08:50:43.515Z,46.67
2019-04-11T08:53:49.030Z,55.50
2019-04-11T08:56:53.593Z,53.20
2019-04-11T09:00:08.228Z,54.93
2019-04-11T09:03:19.720Z,49.70
2019-04-11T09:06:25.119Z,53.00
2019-04-11T09:09:47.513Z,53.73
2019-04-11T09:12:55.474Z,50.17
2019-04-11T09:16:17.311Z,57.13
2019-04-11T09:19:39.293Z,55.57
2019-04-11T09:22:47.620Z,57.17
2019-04-11T09:26:01.873Z,54.70
2019-04-11T09:29:06.819Z,54.90
2019-04-11T09:32:28.560Z,62.20
2019-04-11T09:35:40.164Z,55.80
2019-04-11T09:38:46.459Z,54.57
2019-04-11T09:42:09.979Z,68.30
2019-04-11T09:45:30.059Z,58.23
2019-04-11T09:48:35.627Z,56.70
2019-04-11T09:51:42.147Z,54.13
2019-04-11T09:54:54.628Z,55.13
2019-04-11T09:58:02.809Z,50.90
2019-04-11T10:01:24.571Z,55.47
2019-04-11T10:04:30.051Z,55.03
2019-04-11T10:07:38.260Z,53.57
2019-04-11T10:10:59.900Z,50.43
2019-04-11T10:14:11.953Z,51.50
2019-04-11T10:17:25.998Z,52.70
2019-04-11T10:20:28.856Z,52.43
2019-04-11T10:23:49.625Z,51.83
2019-04-11T10:27:14.234Z,52.23
2019-04-11T10:30:35.920Z,55.73
2019-04-11T10:33:41.448Z,51.53
2019-04-11T10:36:47.408Z,52.37
2019-04-11T10:39:53.554Z,54.50
2019-04-11T10:42:58.082Z,57.73
2019-04-11T10:46:13.307Z,53.77
2019-04-11T10:49:24.729Z,55.50
2019-04-11T10:52:30.859Z,57.57
2019-04-11T10:55:36.333Z,64.97
2019-04-11T10:58:44.791Z,54.40
2019-04-11T11:02:06.533Z,57.27
2019-04-11T11:05:12.817Z,60.57
2019-04-11T11:08:21.576Z,49.30
2019-04-11T11:11:30.459Z,71.27
2019-04-11T11:14:38.934Z,71.10
2019-04-11T11:18:12.695Z,58.23
2019-04-11T11:20:55.053Z,52.20
2019-04-11T11:24:15.458Z,48.20
2019-04-11T11:27:21.025Z,45.50
2019-04-11T11:30:44.773Z,58.70
2019-04-11T11:33:50.889Z,55.17
2019-04-11T11:36:56.710Z,49.20
2019-04-11T11:40:04.918Z,45.90
2019-04-11T11:43:09.234Z,47.93
2019-04-11T11:46:31.679Z,52.63
2019-04-11T11:49:46.729Z,43.40
2019-04-11T11:52:59.499Z,40.77
2019-04-11T11:56:05.370Z,41.00
2019-04-11T11:59:11.260Z,38.33
2019-04-11T12:02:18.248Z,38.23
2019-04-11T12:05:26.312Z,37.13
2019-04-11T12:08:48.182Z,37.27
2019-04-11T12:11:59.719Z,39.30
2019-04-11T12:15:20.933Z,36.87
2019-04-11T12:18:44.881Z,35.67
2019-04-11T12:21:48.786Z,35.57
2019-04-11T12:24:53.248Z,36.47
2019-04-11T12:28:07.655Z,33.40
2019-04-11T12:31:11.362Z,32.83
2019-04-11T12:34:19.402Z,33.03
2019-04-11T12:37:25.314Z,35.43
2019-04-11T12:40:46.910Z,33.07
2019-04-11T12:44:07.279Z,32.80
2019-04-11T12:47:15.226Z,36.03
2019-04-11T12:50:37.194Z,32.13
2019-04-11T12:53:41.034Z,32.50
2019-04-11T12:56:52.502Z,33.20
2019-04-11T13:00:00.394Z,36.07
2019-04-11T13:03:09.239Z,37.97
2019-04-11T13:06:35.344Z,35.33
2019-04-11T13:09:33.654Z,38.10
2019-04-11T13:12:57.268Z,34.87
2019-04-11T13:16:11.834Z,39.97
2019-04-11T13:19:09.800Z,56.83
2019-04-11T13:22:15.260Z,37.33
2019-04-11T13:25:36.840Z,36.97
2019-04-11T13:28:42.286Z,37.53
2019-04-11T13:31:47.693Z,40.93
2019-04-11T13:34:56.105Z,44.67
2019-04-11T13:38:10.325Z,165.93
2019-04-11T13:41:32.214Z,144.77
2019-04-11T13:44:36.375Z,56.03
2019-04-11T13:47:42.530Z,44.40
2019-04-11T13:50:47.851Z,40.40
2019-04-11T13:54:09.215Z,43.60
2019-04-11T13:57:26.397Z,37.90
2019-04-11T14:00:46.981Z,32.23
2019-04-11T14:04:07.883Z,45.73
2019-04-11T14:07:11.809Z,45.00
2019-04-11T14:10:17.211Z,40.60
2019-04-11T14:13:22.755Z,39.80
2019-04-11T14:16:29.867Z,38.23
2019-04-11T14:19:37.336Z,45.83
2019-04-11T14:22:59.166Z,36.20
2019-04-11T14:26:07.648Z,37.73
2019-04-11T14:29:21.834Z,40.50
2019-04-11T14:32:27.230Z,49.40
2019-04-11T14:35:35.490Z,45.13
2019-04-11T14:38:46.608Z,37.03
2019-04-11T14:41:56.529Z,41.03
2019-04-11T14:45:00.369Z,41.07
2019-04-11T14:48:07.973Z,32.57
2019-04-11T14:51:15.948Z,37.90
2019-04-11T14:54:20.439Z,39.53
2019-04-11T14:57:31.314Z,30.47
2019-04-11T15:00:36.703Z,31.17
2019-04-11T15:03:54.178Z,29.10
2019-04-11T15:06:59.868Z,25.27
2019-04-11T15:10:23.858Z,30.33
2019-04-11T15:13:29.286Z,48.43
2019-04-11T15:16:50.902Z,39.50
2019-04-11T15:20:12.749Z,39.47
2019-04-11T15:23:27.122Z,43.83
2019-04-11T15:26:47.334Z,48.90
2019-04-11T15:29:51.215Z,38.73
2019-04-11T15:33:12.583Z,36.10
2019-04-11T15:36:18.019Z,34.53
2019-04-11T15:39:44.598Z,43.43
2019-04-11T15:42:49.683Z,40.80
2019-04-11T15:45:55.154Z,30.77
2019-04-11T15:49:03.149Z,34.33
2019-04-11T15:52:08.609Z,38.20
2019-04-11T15:55:30.394Z,33.77
2019-04-11T15:58:36.203Z,29.27
2019-04-11T16:01:57.729Z,32.00
2019-04-11T16:05:03.146Z,36.43
2019-04-11T16:08:20.760Z,34.43
2019-04-11T16:11:35.064Z,38.77
2019-04-11T16:14:38.933Z,35.60
2019-04-11T16:18:00.209Z,35.87
2019-04-11T16:21:18.698Z,36.63
2019-04-11T16:24:27.621Z,36.73
2019-04-11T16:27:49.514Z,70.23
2019-04-11T16:30:54.933Z,50.87
2019-04-11T16:34:00.358Z,172.77
2019-04-11T16:37:04.609Z,71.03
2019-04-11T16:40:20.909Z,51.20
2019-04-11T16:43:25.159Z,49.93
2019-04-11T16:46:46.961Z,49.60
2019-04-11T16:49:52.346Z,47.57
2019-04-11T16:52:56.306Z,47.40
2019-04-11T16:56:00.241Z,49.33
2019-04-11T16:59:04.558Z,49.00
2019-04-11T17:02:08.374Z,55.00
2019-04-11T17:05:12.357Z,54.17
2019-04-11T17:08:30.046Z,73.93
2019-04-11T17:11:33.944Z,91.77
2019-04-11T17:14:37.785Z,90.17
2019-04-11T17:17:41.657Z,63.07
2019-04-11T17:20:45.530Z,74.20
2019-04-11T17:23:49.438Z,81.60
2019-04-11T17:26:53.451Z,92.20
2019-04-11T17:29:57.385Z,87.63
2019-04-11T17:33:01.215Z,75.87
2019-04-11T17:36:05.244Z,87.13
2019-04-11T17:39:09.961Z,65.90
2019-04-11T17:42:14.032Z,69.63
2019-04-11T17:45:17.893Z,77.77
2019-04-11T17:48:21.774Z,84.10
2019-04-11T17:51:25.639Z,87.97
2019-04-11T17:54:29.491Z,91.43
2019-04-11T17:57:33.379Z,80.00
2019-04-11T18:00:38.949Z,105.37
2019-04-11T18:03:42.863Z,120.80
2019-04-11T18:06:47.163Z,98.70
2019-04-11T18:09:55.711Z,124.37
2019-04-11T18:13:00.340Z,143.50
2019-04-11T18:16:02.705Z,146.47
2019-04-11T18:19:06.990Z,134.47
2019-04-11T18:22:13.636Z,91.93
2019-04-11T18:25:20.763Z,94.30
2019-04-11T18:28:23.334Z,74.07
2019-04-11T18:31:27.249Z,71.37
2019-04-11T18:34:31.833Z,83.20
2019-04-11T18:37:36.273Z,91.57
2019-04-11T18:40:40.262Z,112.70
2019-04-11T18:43:47.053Z,126.73
2019-04-11T18:46:50.329Z,97.50
2019-04-11T18:49:54.314Z,90.97
2019-04-11T18:52:59.534Z,88.03
2019-04-11T18:56:03.970Z,77.70
2019-04-11T18:59:07.902Z,71.07
2019-04-11T19:02:12.162Z,64.70
2019-04-11T19:05:27.876Z,73.00
2019-04-11T19:08:22.454Z,85.77
2019-04-11T19:11:26.559Z,85.57
2019-04-11T19:14:30.541Z,59.87
2019-04-11T19:17:34.446Z,73.27
2019-04-11T19:20:38.406Z,69.50
2019-04-11T19:23:42.318Z,63.23
2019-04-11T19:26:46.886Z,60.57
2019-04-11T19:29:50.973Z,54.23
2019-04-11T19:32:54.968Z,56.27
2019-04-11T19:35:58.868Z,52.03
2019-04-11T19:39:04.402Z,56.37
2019-04-11T19:42:08.937Z,54.10
2019-04-11T19:45:13.421Z,59.50
2019-04-11T19:48:17.244Z,60.93
2019-04-11T19:51:21.123Z,61.13
2019-04-11T19:54:24.939Z,68.60
2019-04-11T19:57:28.827Z,56.03
2019-04-11T20:00:33.196Z,60.00
2019-04-11T20:03:37.116Z,59.40
2019-04-11T20:06:41.545Z,65.87
2019-04-11T20:09:45.650Z,66.80
2019-04-11T20:12:49.680Z,63.50
2019-04-11T20:15:54.179Z,68.33
2019-04-11T20:19:00.690Z,59.23
2019-04-11T20:22:08.255Z,68.23
2019-04-11T20:25:10.224Z,71.37
2019-04-11T20:28:14.350Z,69.63
2019-04-11T20:31:18.419Z,72.17
2019-04-11T20:34:27.728Z,67.93
2019-04-11T20:37:38.785Z,70.43
2019-04-11T20:40:34.088Z,70.43
2019-04-11T20:43:38.174Z,66.97
2019-04-11T20:46:42.314Z,89.73
2019-04-11T20:49:49.317Z,82.70
2019-04-11T20:52:53.450Z,80.97
2019-04-11T20:55:57.509Z,71.20
2019-04-11T20:59:01.528Z,71.23
2019-04-11T21:02:05.769Z,68.63
2019-04-11T21:05:09.928Z,68.77
2019-04-11T21:08:13.928Z,69.47
2019-04-11T21:11:18.820Z,67.63
2019-04-11T21:14:22.809Z,70.97
2019-04-11T21:17:26.714Z,72.57
2019-04-11T21:20:30.541Z,74.83
2019-04-11T21:23:34.395Z,88.77
2019-04-11T21:26:38.201Z,85.90
2019-04-11T21:29:42.099Z,88.23
2019-04-11T21:32:45.924Z,81.17
2019-04-11T21:35:49.833Z,80.23
2019-04-11T21:38:53.674Z,69.90
2019-04-11T21:41:57.542Z,67.73
2019-04-11T21:45:01.365Z,68.00
2019-04-11T21:48:06.581Z,68.13
2019-04-11T21:51:11.315Z,63.47
2019-04-11T21:54:15.845Z,64.77
2019-04-11T21:57:19.688Z,68.50
2019-04-11T22:00:28.064Z,71.50
2019-04-11T22:03:31.911Z,61.03
2019-04-11T22:06:35.768Z,73.07
2019-04-11T22:09:39.594Z,74.10
2019-04-11T22:12:43.509Z,74.50
2019-04-11T22:15:47.345Z,75.20
2019-04-11T22:18:51.185Z,72.33
2019-04-11T22:21:55.019Z,67.10
2019-04-11T22:24:59.752Z,67.77
2019-04-11T22:28:03.660Z,68.80
2019-04-11T22:31:07.517Z,65.80
2019-04-11T22:34:12.907Z,72.70
2019-04-11T22:37:16.756Z,72.70
2019-04-11T22:40:20.585Z,61.43
2019-04-11T22:43:24.897Z,61.87
2019-04-11T22:46:29.620Z,61.27
2019-04-11T22:49:33.517Z,50.27
2019-04-11T22:52:39.809Z,59.77
2019-04-11T22:55:43.378Z,55.13
2019-04-11T22:58:47.209Z,48.03
2019-04-11T23:01:52.346Z,46.33
2019-04-11T23:04:56.207Z,42.97
2019-04-11T23:08:01.688Z,40.97
2019-04-11T23:11:05.664Z,53.93
2019-04-11T23:14:09.547Z,45.30
2019-04-11T23:17:14.182Z,43.80
2019-04-11T23:20:18.665Z,45.03
2019-04-11T23:23:22.489Z,45.33
2019-04-11T23:26:26.375Z,51.73
2019-04-11T23:29:30.212Z,51.80
2019-04-11T23:32:34.075Z,49.93
2019-04-11T23:35:37.946Z,46.50
2019-04-11T23:38:41.845Z,45.17
2019-04-11T23:41:49.462Z,46.63
2019-04-11T23:44:51.331Z,44.60
2019-04-11T23:47:55.148Z,48.57
2019-04-11T23:50:58.995Z,44.57
2019-04-11T23:54:02.824Z,46.90
2019-04-11T23:57:06.719Z,45.63
